首页
METAR-TAF:

METAR-TAF

机场 :

Resolute, 努那武特, 加拿大

纬度: 74-43N, 经度: 094-59W, 海拔: 67米

当前天气观测

该预报发布于1小时和14分钟前的06:00 UTC
风速7节,风向西
温度 -10°C
湿度 92%
气压 1030 hPa
能見度: 24.1公里
阴天层高于1000英尺
小雪

METAR: CYRB 190600Z 26007KT 15SM -SN OVC010 M10/M11 A3043 RMK SC8 SLP315

时间: 02:14 (07:14 UTC)

预报

该预报发布于1小时和36分钟前的05:38 UTC
预报有效从19日的 06点(UTC)到 20日的 06点(UTC)
风速8节,风向西转西北
能見度: 10公里
阴天层高于1000英尺
短暂存在
从 19日的 06点(UTC)到 19日的 15点(UTC)
能見度: 3.2公里
阴天层高于600英尺
小雪, 轻雾
从 19日的 1500点(UTC)
风速8节,风向
能見度: 10公里
散云层高于1000英尺
多云层高于3000英尺
短暂存在
从 19日的 15点(UTC)到 19日的 24点(UTC)
能見度: 6.4公里
多云层高于700英尺
小雪, 轻雾
成为
从 19日的 22点(UTC)到 19日的 24点(UTC)
风速10节,风向北转东北
从 20日的 0000点(UTC)
风速12节,风向北转东北
能見度: 9.7公里
散云层高于500英尺
阴天层高于1000英尺
轻雾

TAF: CYRB 190538Z 1906/2006 30008KT P6SM OVC010 TEMPO 1906/1915 2SM -SN BR OVC006 FM191500 35008KT P6SM SCT010 BKN030 TEMPO 1915/1924 4SM -SN BR BKN007 BECMG 1922/1924 03010KT FM200000 03012KT 6SM BR SCT005 OVC010 RMK NXT FCST BY 191200Z

超过4000个机场的气象观测和天气预报(METAR&TAF报告)。

可查询的气象台以黄色和红色小点在地图上表示。

将鼠标移到小点上方,可查看气象台名称。

然后点击查看天气观测和预报。

如需切换地图:点击带黑十字的绿色按钮放大地图;点击带横线的绿色按钮缩小地图;或者点击绿色箭头查看邻近地区的地图。


METAR-TAF: